MMMX/MEX METAR and TAF weather

Enter ICAO airport designator
Station Type Date Time Source
MMMX METAR 2020/07/10 16:48 UTC NOAA

MMMX 101648Z 09005KT 6SM FEW100 FEW250 20/09 A3042 NOSIG RMK 8/032 HZY


Station Type Date Time Source
MMMX Decoded METAR 2020/07/10 16:48 UTC NOAA

Mexico City / Licenci, Mexico (MMMX) 19-26N 099-06W
Jul 10, 2020 - 12:48 PM EDT / 2020.07.10 1648 UTC
Wind: from the E (090 degrees) at 6 MPH (5 KT):0
Visibility: 6 mile(s):0
Sky conditions: mostly clear
Temperature: 68 F (20 C)
Dew Point: 48 F (9 C)
Relative Humidity: 49%
Pressure (altimeter): 30.42 in. Hg (1030 hPa)
ob: MMMX 101648Z 09005KT 6SM FEW100 FEW250 20/09 A3042 NOSIG RMK 8/032 HZY
cycle: 17

Station Type Date Time Source
MMMX TAF 2020/07/10 12:20 UTC NOAA

TAF MMMX 101114Z 1012/1118 08005KT P6SM SCT080 TX26/1020Z TN11/1012Z
FM102000 08010KT P6SM SCT020 SCT100
TEMPO 1021/1101 BKN020
FM110300 08005KT P6SM SCT020 SCT100
TEMPO 1110/1114 BKN015
FM111700 08010KT P6SM SCT020

Example: see airport list